sensor_id;sensor_type;location;lat;lon;timestamp;pressure;altitude;pressure_sealevel;temperature;humidity
46303;BME280;32029;51.358;5.628;2023-03-23T00:01:19;100031.19;;;14.78;85.39
46303;BME280;32029;51.358;5.628;2023-03-23T00:03:48;100040.59;;;14.88;85.40
46303;BME280;32029;51.358;5.628;2023-03-23T00:06:21;100045.75;;;14.85;85.24
46303;BME280;32029;51.358;5.628;2023-03-23T00:08:50;100055.41;;;14.94;85.00
46303;BME280;32029;51.358;5.628;2023-03-23T00:11:21;100044.19;;;14.89;85.21
46303;BME280;32029;51.358;5.628;2023-03-23T00:13:50;100038.13;;;14.99;85.18
46303;BME280;32029;51.358;5.628;2023-03-23T00:16:20;100040.38;;;15.02;84.63
46303;BME280;32029;51.358;5.628;2023-03-23T00:18:59;100022.84;;;14.96;84.82
46303;BME280;32029;51.358;5.628;2023-03-23T00:21:30;100041.84;;;15.04;84.56
46303;BME280;32029;51.358;5.628;2023-03-23T00:24:12;100038.63;;;15.07;84.37
46303;BME280;32029;51.358;5.628;2023-03-23T00:26:44;100028.50;;;15.01;84.14
46303;BME280;32029;51.358;5.628;2023-03-23T00:29:18;100028.50;;;15.01;84.25
46303;BME280;32029;51.358;5.628;2023-03-23T00:31:48;100041.72;;;14.99;84.28
46303;BME280;32029;51.358;5.628;2023-03-23T00:34:21;100029.34;;;15.02;83.99
46303;BME280;32029;51.358;5.628;2023-03-23T00:36:53;100022.97;;;15.01;84.35
46303;BME280;32029;51.358;5.628;2023-03-23T00:39:24;100019.28;;;15.07;84.09
46303;BME280;32029;51.358;5.628;2023-03-23T00:41:52;100010.88;;;15.02;84.10
46303;BME280;32029;51.358;5.628;2023-03-23T00:44:19;100027.09;;;15.10;84.07
46303;BME280;32029;51.358;5.628;2023-03-23T00:46:49;100017.81;;;15.05;84.07
46303;BME280;32029;51.358;5.628;2023-03-23T00:49:19;100016.59;;;15.01;83.94
46303;BME280;32029;51.358;5.628;2023-03-23T00:51:55;100013.00;;;15.00;83.93
46303;BME280;32029;51.358;5.628;2023-03-23T00:54:23;100029.38;;;15.13;84.02
46303;BME280;32029;51.358;5.628;2023-03-23T00:56:51;100036.13;;;15.17;83.67
46303;BME280;32029;51.358;5.628;2023-03-23T00:59:18;100017.25;;;15.14;83.50
46303;BME280;32029;51.358;5.628;2023-03-23T01:01:46;100009.53;;;15.05;83.69
46303;BME280;32029;51.358;5.628;2023-03-23T01:04:13;100014.97;;;15.11;83.89
46303;BME280;32029;51.358;5.628;2023-03-23T01:06:43;99992.72;;;14.94;83.94
46303;BME280;32029;51.358;5.628;2023-03-23T01:09:13;100009.16;;;15.01;84.14
46303;BME280;32029;51.358;5.628;2023-03-23T01:11:44;100030.25;;;15.14;84.09
46303;BME280;32029;51.358;5.628;2023-03-23T01:14:13;100028.78;;;15.11;84.06
46303;BME280;32029;51.358;5.628;2023-03-23T01:16:40;100028.53;;;15.13;84.22
46303;BME280;32029;51.358;5.628;2023-03-23T01:19:07;100005.13;;;15.15;84.35
46303;BME280;32029;51.358;5.628;2023-03-23T01:21:33;99992.50;;;15.19;84.26
46303;BME280;32029;51.358;5.628;2023-03-23T01:24:00;99994.53;;;15.12;84.47
46303;BME280;32029;51.358;5.628;2023-03-23T01:26:28;99993.97;;;15.22;84.56
46303;BME280;32029;51.358;5.628;2023-03-23T01:28:56;99971.72;;;15.17;84.24
46303;BME280;32029;51.358;5.628;2023-03-23T01:31:24;99990.97;;;15.24;84.62
46303;BME280;32029;51.358;5.628;2023-03-23T01:33:53;99988.81;;;15.26;84.23
46303;BME280;32029;51.358;5.628;2023-03-23T01:36:24;99965.22;;;15.11;84.45
46303;BME280;32029;51.358;5.628;2023-03-23T01:38:53;99973.28;;;15.25;84.40
46303;BME280;32029;51.358;5.628;2023-03-23T01:41:23;99992.53;;;15.31;84.27
46303;BME280;32029;51.358;5.628;2023-03-23T01:46:43;99987.38;;;15.35;84.09
46303;BME280;32029;51.358;5.628;2023-03-23T01:49:21;99983.78;;;15.34;84.11
46303;BME280;32029;51.358;5.628;2023-03-23T01:51:53;99959.97;;;15.22;84.11
46303;BME280;32029;51.358;5.628;2023-03-23T01:54:21;99988.44;;;15.22;84.04
46303;BME280;32029;51.358;5.628;2023-03-23T01:56:56;99995.91;;;15.33;83.92
46303;BME280;32029;51.358;5.628;2023-03-23T01:59:25;99956.44;;;15.03;84.00
46303;BME280;32029;51.358;5.628;2023-03-23T02:01:54;99956.81;;;15.06;84.44
46303;BME280;32029;51.358;5.628;2023-03-23T02:04:24;99959.25;;;15.14;84.12
46303;BME280;32029;51.358;5.628;2023-03-23T02:06:52;99985.78;;;15.27;83.93
46303;BME280;32029;51.358;5.628;2023-03-23T02:09:20;99958.63;;;15.12;84.04
46303;BME280;32029;51.358;5.628;2023-03-23T02:11:49;99967.91;;;15.30;83.48
46303;BME280;32029;51.358;5.628;2023-03-23T02:14:19;99949.28;;;15.25;83.30
46303;BME280;32029;51.358;5.628;2023-03-23T02:22:53;99954.06;;;15.18;84.03
46303;BME280;32029;51.358;5.628;2023-03-23T02:28:47;99946.63;;;15.18;84.33
46303;BME280;32029;51.358;5.628;2023-03-23T02:31:43;99948.91;;;15.22;84.22
46303;BME280;32029;51.358;5.628;2023-03-23T02:34:19;99957.44;;;15.20;84.40
46303;BME280;32029;51.358;5.628;2023-03-23T02:37:01;99949.97;;;15.20;84.41
46303;BME280;32029;51.358;5.628;2023-03-23T02:39:37;99946.13;;;15.10;84.62
46303;BME280;32029;51.358;5.628;2023-03-23T02:42:10;99923.41;;;14.96;84.86
46303;BME280;32029;51.358;5.628;2023-03-23T02:44:41;99949.03;;;15.15;85.17
46303;BME280;32029;51.358;5.628;2023-03-23T02:47:14;99943.84;;;15.18;85.27
46303;BME280;32029;51.358;5.628;2023-03-23T02:49:44;99937.34;;;15.25;85.41
46303;BME280;32029;51.358;5.628;2023-03-23T02:52:19;99940.84;;;15.32;85.19
46303;BME280;32029;51.358;5.628;2023-03-23T02:54:52;99936.31;;;15.37;84.96
46303;BME280;32029;51.358;5.628;2023-03-23T02:57:20;99936.06;;;15.39;84.77
46303;BME280;32029;51.358;5.628;2023-03-23T02:59:49;99931.00;;;15.36;84.28
46303;BME280;32029;51.358;5.628;2023-03-23T03:05:06;99927.28;;;15.42;84.22
46303;BME280;32029;51.358;5.628;2023-03-23T03:07:59;99946.84;;;15.40;84.61
46303;BME280;32029;51.358;5.628;2023-03-23T03:10:46;99933.75;;;15.36;84.37
46303;BME280;32029;51.358;5.628;2023-03-23T03:16:14;99939.53;;;15.23;84.69
46303;BME280;32029;51.358;5.628;2023-03-23T03:18:47;99933.53;;;15.26;84.37
46303;BME280;32029;51.358;5.628;2023-03-23T03:21:18;99932.56;;;15.20;84.82
46303;BME280;32029;51.358;5.628;2023-03-23T03:23:55;99943.03;;;15.18;84.72
46303;BME280;32029;51.358;5.628;2023-03-23T03:26:26;99920.53;;;15.03;84.96
46303;BME280;32029;51.358;5.628;2023-03-23T03:28:54;99919.34;;;14.99;85.22
46303;BME280;32029;51.358;5.628;2023-03-23T03:31:29;99924.59;;;15.00;85.19
46303;BME280;32029;51.358;5.628;2023-03-23T03:33:57;99886.91;;;14.82;85.04
46303;BME280;32029;51.358;5.628;2023-03-23T03:36:29;99939.53;;;15.11;84.92
46303;BME280;32029;51.358;5.628;2023-03-23T03:39:05;99946.13;;;15.10;84.71
46303;BME280;32029;51.358;5.628;2023-03-23T03:41:36;99936.41;;;15.07;84.87
46303;BME280;32029;51.358;5.628;2023-03-23T03:44:04;99934.47;;;15.08;84.20
46303;BME280;32029;51.358;5.628;2023-03-23T03:46:35;99933.00;;;15.05;84.41
46303;BME280;32029;51.358;5.628;2023-03-23T03:49:06;99921.84;;;15.00;83.47
46303;BME280;32029;51.358;5.628;2023-03-23T03:51:34;99947.09;;;15.04;83.54
46303;BME280;32029;51.358;5.628;2023-03-23T03:54:02;99940.25;;;15.06;83.58
46303;BME280;32029;51.358;5.628;2023-03-23T03:56:29;99923.41;;;14.96;82.56
46303;BME280;32029;51.358;5.628;2023-03-23T03:58:58;99905.25;;;14.77;82.62
46303;BME280;32029;51.358;5.628;2023-03-23T04:01:26;99950.56;;;14.99;82.96
46303;BME280;32029;51.358;5.628;2023-03-23T04:03:54;99943.22;;;14.93;82.73
46303;BME280;32029;51.358;5.628;2023-03-23T04:06:22;99948.38;;;15.01;82.28
46303;BME280;32029;51.358;5.628;2023-03-23T04:08:49;99918.56;;;14.80;81.75
46303;BME280;32029;51.358;5.628;2023-03-23T04:11:16;99959.94;;;14.98;81.76
46303;BME280;32029;51.358;5.628;2023-03-23T04:13:42;99927.78;;;14.74;81.40
46303;BME280;32029;51.358;5.628;2023-03-23T04:16:09;99971.56;;;15.00;81.32
46303;BME280;32029;51.358;5.628;2023-03-23T04:18:36;99954.63;;;14.97;81.17
46303;BME280;32029;51.358;5.628;2023-03-23T04:21:04;99979.41;;;15.03;81.12
46303;BME280;32029;51.358;5.628;2023-03-23T04:23:31;99964.75;;;15.03;80.85
46303;BME280;32029;51.358;5.628;2023-03-23T04:26:00;99956.09;;;14.99;80.28
46303;BME280;32029;51.358;5.628;2023-03-23T04:28:27;99973.03;;;15.03;80.34
46303;BME280;32029;51.358;5.628;2023-03-23T04:30:54;99970.47;;;15.01;80.51
46303;BME280;32029;51.358;5.628;2023-03-23T04:33:23;99969.56;;;15.07;80.34
46303;BME280;32029;51.358;5.628;2023-03-23T04:35:53;99972.91;;;15.09;80.24
46303;BME280;32029;51.358;5.628;2023-03-23T04:38:21;99971.59;;;15.12;80.48
46303;BME280;32029;51.358;5.628;2023-03-23T04:40:51;99971.22;;;15.08;79.62
46303;BME280;32029;51.358;5.628;2023-03-23T04:43:19;99974.09;;;15.02;79.38
46303;BME280;32029;51.358;5.628;2023-03-23T04:45:55;99993.31;;;15.08;79.48
46303;BME280;32029;51.358;5.628;2023-03-23T04:48:26;99974.25;;;15.07;79.97
46303;BME280;32029;51.358;5.628;2023-03-23T04:50:53;99959.19;;;14.91;79.87
46303;BME280;32029;51.358;5.628;2023-03-23T04:53:20;99974.81;;;14.97;79.95
46303;BME280;32029;51.358;5.628;2023-03-23T04:55:49;99900.28;;;14.55;79.60
46303;BME280;32029;51.358;5.628;2023-03-23T04:58:16;99994.16;;;15.09;79.99
46303;BME280;32029;51.358;5.628;2023-03-23T05:00:43;99995.00;;;15.09;80.13
46303;BME280;32029;51.358;5.628;2023-03-23T05:03:16;99991.78;;;15.12;79.87
46303;BME280;32029;51.358;5.628;2023-03-23T05:05:46;99976.75;;;15.08;79.65
46303;BME280;32029;51.358;5.628;2023-03-23T05:08:19;99979.63;;;15.13;80.17
46303;BME280;32029;51.358;5.628;2023-03-23T05:10:52;99965.81;;;15.02;80.07
46303;BME280;32029;51.358;5.628;2023-03-23T05:13:20;99977.50;;;15.15;80.00
46303;BME280;32029;51.358;5.628;2023-03-23T05:15:47;99989.38;;;15.16;80.21
46303;BME280;32029;51.358;5.628;2023-03-23T05:18:14;99981.94;;;15.16;79.74
46303;BME280;32029;51.358;5.628;2023-03-23T05:20:42;99990.69;;;15.13;80.08
46303;BME280;32029;51.358;5.628;2023-03-23T05:23:10;99902.91;;;14.62;79.98
46303;BME280;32029;51.358;5.628;2023-03-23T05:25:38;99966.41;;;15.04;80.26
46303;BME280;32029;51.358;5.628;2023-03-23T05:28:09;99981.81;;;15.11;80.13
46303;BME280;32029;51.358;5.628;2023-03-23T05:30:38;100001.03;;;15.06;79.94
46303;BME280;32029;51.358;5.628;2023-03-23T05:33:05;99989.69;;;14.96;80.30
46303;BME280;32029;51.358;5.628;2023-03-23T05:35:34;99999.81;;;15.02;80.45
46303;BME280;32029;51.358;5.628;2023-03-23T05:38:00;100006.19;;;15.03;80.50
46303;BME280;32029;51.358;5.628;2023-03-23T05:40:29;99963.97;;;14.84;80.10
46303;BME280;32029;51.358;5.628;2023-03-23T05:42:56;99975.03;;;14.84;80.25
46303;BME280;32029;51.358;5.628;2023-03-23T05:45:25;100000.84;;;14.89;80.55
46303;BME280;32029;51.358;5.628;2023-03-23T05:47:53;99970.56;;;14.71;80.95
46303;BME280;32029;51.358;5.628;2023-03-23T05:50:20;99992.81;;;14.88;81.02
46303;BME280;32029;51.358;5.628;2023-03-23T05:52:48;99999.88;;;14.84;81.47
46303;BME280;32029;51.358;5.628;2023-03-23T05:55:15;99976.75;;;14.66;81.58
46303;BME280;32029;51.358;5.628;2023-03-23T05:57:42;99967.25;;;14.62;81.40
46303;BME280;32029;51.358;5.628;2023-03-23T06:00:09;99973.53;;;14.69;81.27
46303;BME280;32029;51.358;5.628;2023-03-23T06:02:47;99979.34;;;14.80;80.73
46303;BME280;32029;51.358;5.628;2023-03-23T06:05:15;99978.28;;;14.62;80.69
46303;BME280;32029;51.358;5.628;2023-03-23T06:07:42;100012.94;;;14.77;80.55
46303;BME280;32029;51.358;5.628;2023-03-23T06:10:10;99994.41;;;14.65;80.51
46303;BME280;32029;51.358;5.628;2023-03-23T06:12:38;100009.09;;;14.78;80.41
46303;BME280;32029;51.358;5.628;2023-03-23T06:15:06;99996.81;;;14.74;80.49
46303;BME280;32029;51.358;5.628;2023-03-23T06:17:34;100012.84;;;14.83;80.34
46303;BME280;32029;51.358;5.628;2023-03-23T06:20:04;100017.91;;;14.86;80.21
46303;BME280;32029;51.358;5.628;2023-03-23T06:22:37;99994.81;;;14.81;80.21
46303;BME280;32029;51.358;5.628;2023-03-23T06:25:05;100024.69;;;15.02;79.74
46303;BME280;32029;51.358;5.628;2023-03-23T06:27:34;100028.28;;;15.03;79.46
46303;BME280;32029;51.358;5.628;2023-03-23T06:30:02;100037.63;;;15.02;79.17
46303;BME280;32029;51.358;5.628;2023-03-23T06:32:30;100039.81;;;15.00;79.52
46303;BME280;32029;51.358;5.628;2023-03-23T06:34:58;100026.22;;;14.98;79.45
46303;BME280;32029;51.358;5.628;2023-03-23T06:37:25;100044.41;;;15.06;79.25
46303;BME280;32029;51.358;5.628;2023-03-23T06:39:55;100025.03;;;14.94;79.25
46303;BME280;32029;51.358;5.628;2023-03-23T06:42:23;100048.00;;;15.06;79.44
46303;BME280;32029;51.358;5.628;2023-03-23T06:44:52;100029.47;;;14.95;79.05
46303;BME280;32029;51.358;5.628;2023-03-23T06:47:27;100053.28;;;15.08;79.00
46303;BME280;32029;51.358;5.628;2023-03-23T06:49:57;100039.66;;;14.94;79.21
46303;BME280;32029;51.358;5.628;2023-03-23T06:52:24;100061.56;;;15.08;79.34
46303;BME280;32029;51.358;5.628;2023-03-23T06:54:51;100052.19;;;15.09;79.53
46303;BME280;32029;51.358;5.628;2023-03-23T06:57:19;100069.88;;;15.19;79.16
46303;BME280;32029;51.358;5.628;2023-03-23T06:59:47;100051.00;;;15.16;78.66
46303;BME280;32029;51.358;5.628;2023-03-23T07:02:14;100019.72;;;14.92;79.20
46303;BME280;32029;51.358;5.628;2023-03-23T07:04:41;100017.31;;;14.96;79.02
46303;BME280;32029;51.358;5.628;2023-03-23T07:07:11;100040.91;;;15.10;79.17
46303;BME280;32029;51.358;5.628;2023-03-23T07:09:40;100062.47;;;15.32;78.65
46303;BME280;32029;51.358;5.628;2023-03-23T07:12:08;100028.44;;;15.19;78.46
46303;BME280;32029;51.358;5.628;2023-03-23T07:14:36;100016.28;;;15.09;78.35
46303;BME280;32029;51.358;5.628;2023-03-23T07:17:03;100033.72;;;15.21;78.46
46303;BME280;32029;51.358;5.628;2023-03-23T07:19:29;99997.28;;;15.01;78.51
46303;BME280;32029;51.358;5.628;2023-03-23T07:21:57;100042.53;;;15.30;78.27
46303;BME280;32029;51.358;5.628;2023-03-23T07:24:24;100069.34;;;15.41;77.97
46303;BME280;32029;51.358;5.628;2023-03-23T07:26:51;100056.00;;;15.38;77.66
46303;BME280;32029;51.358;5.628;2023-03-23T07:29:18;100056.38;;;15.41;77.92
46303;BME280;32029;51.358;5.628;2023-03-23T07:31:45;99961.31;;;14.77;77.47
46303;BME280;32029;51.358;5.628;2023-03-23T07:34:12;100043.13;;;15.32;77.97
46303;BME280;32029;51.358;5.628;2023-03-23T07:36:39;100040.97;;;15.34;77.85
46303;BME280;32029;51.358;5.628;2023-03-23T07:39:06;100036.88;;;15.36;77.39
46303;BME280;32029;51.358;5.628;2023-03-23T07:41:33;100036.53;;;15.44;77.68
46303;BME280;32029;51.358;5.628;2023-03-23T07:44:00;100055.78;;;15.63;76.70
46303;BME280;32029;51.358;5.628;2023-03-23T07:46:27;100047.75;;;15.61;76.80
46303;BME280;32029;51.358;5.628;2023-03-23T07:48:54;100056.63;;;15.63;76.12
46303;BME280;32029;51.358;5.628;2023-03-23T07:51:20;100044.59;;;15.46;75.90
46303;BME280;32029;51.358;5.628;2023-03-23T07:53:48;99985.66;;;15.10;76.20
46303;BME280;32029;51.358;5.628;2023-03-23T07:56:15;100066.94;;;15.56;76.27
46303;BME280;32029;51.358;5.628;2023-03-23T07:58:45;100064.53;;;15.48;76.72
46303;BME280;32029;51.358;5.628;2023-03-23T08:01:12;100082.00;;;15.49;76.82
46303;BME280;32029;51.358;5.628;2023-03-23T08:03:40;100110.94;;;15.46;78.04
46303;BME280;32029;51.358;5.628;2023-03-23T08:06:07;100139.38;;;15.35;84.39
46303;BME280;32029;51.358;5.628;2023-03-23T08:08:34;100105.13;;;14.94;88.10
46303;BME280;32029;51.358;5.628;2023-03-23T08:11:02;100091.59;;;14.56;90.29
46303;BME280;32029;51.358;5.628;2023-03-23T08:13:29;100098.69;;;14.27;92.77
46303;BME280;32029;51.358;5.628;2023-03-23T08:15:55;100126.13;;;14.21;92.80
46303;BME280;32029;51.358;5.628;2023-03-23T08:18:23;100143.97;;;14.19;92.96
46303;BME280;32029;51.358;5.628;2023-03-23T08:20:50;100134.78;;;13.82;92.04
46303;BME280;32029;51.358;5.628;2023-03-23T08:23:17;100147.41;;;13.64;91.59
46303;BME280;32029;51.358;5.628;2023-03-23T08:25:43;100144.25;;;13.36;91.98
46303;BME280;32029;51.358;5.628;2023-03-23T08:28:10;100169.47;;;13.33;90.92
46303;BME280;32029;51.358;5.628;2023-03-23T08:30:38;100160.44;;;13.12;90.79
46303;BME280;32029;51.358;5.628;2023-03-23T08:33:05;100123.13;;;12.71;91.73
46303;BME280;32029;51.358;5.628;2023-03-23T08:35:32;100172.81;;;12.96;92.59
46303;BME280;32029;51.358;5.628;2023-03-23T08:37:59;100187.19;;;12.98;92.88
46303;BME280;32029;51.358;5.628;2023-03-23T08:40:26;100155.13;;;12.72;92.55
46303;BME280;32029;51.358;5.628;2023-03-23T08:42:54;100190.41;;;12.95;93.59
46303;BME280;32029;51.358;5.628;2023-03-23T08:45:23;100183.41;;;12.99;93.80
46303;BME280;32029;51.358;5.628;2023-03-23T08:47:50;100178.09;;;12.98;93.73
46303;BME280;32029;51.358;5.628;2023-03-23T08:50:21;100214.28;;;13.15;92.72
46303;BME280;32029;51.358;5.628;2023-03-23T08:52:49;100183.00;;;12.96;93.29
46303;BME280;32029;51.358;5.628;2023-03-23T08:55:16;100197.75;;;13.08;93.57
46303;BME280;32029;51.358;5.628;2023-03-23T08:57:44;100114.88;;;12.71;94.35
46303;BME280;32029;51.358;5.628;2023-03-23T09:00:16;100160.91;;;13.03;94.67
46303;BME280;32029;51.358;5.628;2023-03-23T09:02:46;100160.63;;;13.17;94.67
46303;BME280;32029;51.358;5.628;2023-03-23T09:05:15;100188.28;;;13.42;94.84
46303;BME280;32029;51.358;5.628;2023-03-23T09:07:44;100192.47;;;13.52;94.13
46303;BME280;32029;51.358;5.628;2023-03-23T09:10:12;100197.09;;;13.58;94.27
46303;BME280;32029;51.358;5.628;2023-03-23T09:12:41;100193.25;;;13.65;94.36
46303;BME280;32029;51.358;5.628;2023-03-23T09:15:10;100177.06;;;13.69;94.54
46303;BME280;32029;51.358;5.628;2023-03-23T09:17:41;100196.25;;;13.89;93.06
46303;BME280;32029;51.358;5.628;2023-03-23T09:20:09;100188.13;;;13.94;92.65
46303;BME280;32029;51.358;5.628;2023-03-23T09:22:41;100212.00;;;14.07;91.32
46303;BME280;32029;51.358;5.628;2023-03-23T09:25:12;100193.19;;;13.97;91.01
46303;BME280;32029;51.358;5.628;2023-03-23T09:27:40;100201.00;;;14.00;90.61
46303;BME280;32029;51.358;5.628;2023-03-23T09:30:10;100177.53;;;13.91;90.26
46303;BME280;32029;51.358;5.628;2023-03-23T09:32:38;100204.91;;;14.17;90.02
46303;BME280;32029;51.358;5.628;2023-03-23T09:35:07;100199.53;;;14.22;90.26
46303;BME280;32029;51.358;5.628;2023-03-23T09:37:40;100221.81;;;14.28;89.53
46303;BME280;32029;51.358;5.628;2023-03-23T09:40:12;100204.16;;;14.29;88.69
46303;BME280;32029;51.358;5.628;2023-03-23T09:45:20;100208.00;;;14.28;87.93
46303;BME280;32029;51.358;5.628;2023-03-23T09:50:19;100201.56;;;14.34;88.40
46303;BME280;32029;51.358;5.628;2023-03-23T09:55:16;100201.00;;;14.50;87.18
46303;BME280;32029;51.358;5.628;2023-03-23T09:57:58;100171.28;;;14.45;85.87
46303;BME280;32029;51.358;5.628;2023-03-23T10:00:31;100191.97;;;14.61;85.72
46303;BME280;32029;51.358;5.628;2023-03-23T10:03:18;100197.19;;;14.69;84.71
46303;BME280;32029;51.358;5.628;2023-03-23T10:05:51;100182.78;;;14.42;85.44
46303;BME280;32029;51.358;5.628;2023-03-23T10:08:21;100208.59;;;14.55;86.61
46303;BME280;32029;51.358;5.628;2023-03-23T10:11:02;100203.63;;;14.63;87.79
46303;BME280;32029;51.358;5.628;2023-03-23T10:16:17;100211.91;;;14.82;86.11
46303;BME280;32029;51.358;5.628;2023-03-23T10:18:51;100217.50;;;14.93;84.75
46303;BME280;32029;51.358;5.628;2023-03-23T10:21:23;100209.59;;;14.97;84.64
46303;BME280;32029;51.358;5.628;2023-03-23T10:23:54;100200.28;;;14.98;83.41
46303;BME280;32029;51.358;5.628;2023-03-23T10:29:28;100209.00;;;14.95;83.55
46303;BME280;32029;51.358;5.628;2023-03-23T10:32:16;100196.94;;;14.89;83.53
46303;BME280;32029;51.358;5.628;2023-03-23T10:34:53;100225.56;;;15.13;83.46
46303;BME280;32029;51.358;5.628;2023-03-23T10:37:26;100222.72;;;15.20;83.63
46303;BME280;32029;51.358;5.628;2023-03-23T10:39:56;100213.19;;;15.16;82.27
46303;BME280;32029;51.358;5.628;2023-03-23T10:42:26;100226.31;;;15.20;82.62
46303;BME280;32029;51.358;5.628;2023-03-23T10:44:55;100220.19;;;15.18;83.52
46303;BME280;32029;51.358;5.628;2023-03-23T10:47:23;100217.91;;;15.15;83.23
46303;BME280;32029;51.358;5.628;2023-03-23T10:49:54;100183.22;;;15.01;82.90
46303;BME280;32029;51.358;5.628;2023-03-23T10:52:35;100214.03;;;15.16;83.84
46303;BME280;32029;51.358;5.628;2023-03-23T10:57:33;100196.88;;;15.14;82.42
46303;BME280;32029;51.358;5.628;2023-03-23T11:00:06;100203.63;;;15.18;83.04
46303;BME280;32029;51.358;5.628;2023-03-23T11:02:41;100208.03;;;15.38;83.49
46303;BME280;32029;51.358;5.628;2023-03-23T11:05:20;100213.38;;;15.51;83.51
46303;BME280;32029;51.358;5.628;2023-03-23T11:07:53;100212.56;;;15.62;83.15
46303;BME280;32029;51.358;5.628;2023-03-23T11:10:26;100217.09;;;15.75;82.43
46303;BME280;32029;51.358;5.628;2023-03-23T11:12:57;100206.16;;;15.80;81.97
46303;BME280;32029;51.358;5.628;2023-03-23T11:15:30;100216.44;;;16.03;81.88
46303;BME280;32029;51.358;5.628;2023-03-23T11:18:00;100205.50;;;16.20;80.59
46303;BME280;32029;51.358;5.628;2023-03-23T11:20:29;100209.75;;;16.23;80.30
46303;BME280;32029;51.358;5.628;2023-03-23T11:23:00;100217.19;;;16.34;79.52
46303;BME280;32029;51.358;5.628;2023-03-23T11:25:26;100210.56;;;16.23;80.27
46303;BME280;32029;51.358;5.628;2023-03-23T11:27:53;100210.94;;;16.27;80.17
46303;BME280;32029;51.358;5.628;2023-03-23T11:30:24;100194.34;;;16.27;78.56
46303;BME280;32029;51.358;5.628;2023-03-23T11:32:54;100208.41;;;16.37;78.04
46303;BME280;32029;51.358;5.628;2023-03-23T11:35:26;100212.72;;;16.33;79.15
46303;BME280;32029;51.358;5.628;2023-03-23T11:37:56;100228.50;;;16.44;79.41
46303;BME280;32029;51.358;5.628;2023-03-23T11:40:30;100222.34;;;16.54;79.68
46303;BME280;32029;51.358;5.628;2023-03-23T11:43:18;100234.41;;;16.71;78.34
46303;BME280;32029;51.358;5.628;2023-03-23T11:48:39;100219.63;;;16.89;78.12
46303;BME280;32029;51.358;5.628;2023-03-23T11:51:19;100220.09;;;16.86;77.19
46303;BME280;32029;51.358;5.628;2023-03-23T11:53:57;100218.38;;;16.85;77.01
46303;BME280;32029;51.358;5.628;2023-03-23T11:56:33;100236.44;;;16.99;75.98
46303;BME280;32029;51.358;5.628;2023-03-23T11:59:01;100239.13;;;16.94;74.51
46303;BME280;32029;51.358;5.628;2023-03-23T12:01:53;100233.22;;;16.79;74.72
46303;BME280;32029;51.358;5.628;2023-03-23T12:21:55;100183.09;;;16.80;76.44
46303;BME280;32029;51.358;5.628;2023-03-23T12:24:54;100214.50;;;17.09;75.66
46303;BME280;32029;51.358;5.628;2023-03-23T12:38:48;100200.44;;;17.28;73.81
46303;BME280;32029;51.358;5.628;2023-03-23T12:43:52;100198.53;;;17.28;74.83
46303;BME280;32029;51.358;5.628;2023-03-23T12:49:41;100198.19;;;17.53;73.81
46303;BME280;32029;51.358;5.628;2023-03-23T12:52:21;100173.56;;;17.57;73.99
46303;BME280;32029;51.358;5.628;2023-03-23T12:54:56;100180.25;;;17.73;73.73
46303;BME280;32029;51.358;5.628;2023-03-23T13:00:25;100140.84;;;17.87;71.62
46303;BME280;32029;51.358;5.628;2023-03-23T13:03:37;100162.13;;;18.16;71.13
46303;BME280;32029;51.358;5.628;2023-03-23T13:06:32;100176.25;;;18.31;71.68
46303;BME280;32029;51.358;5.628;2023-03-23T13:09:25;100178.31;;;18.41;71.24
46303;BME280;32029;51.358;5.628;2023-03-23T13:11:56;100176.09;;;18.38;70.60
46303;BME280;32029;51.358;5.628;2023-03-23T13:14:37;100185.91;;;18.45;69.58
46303;BME280;32029;51.358;5.628;2023-03-23T13:17:20;100176.31;;;18.36;70.82
46303;BME280;32029;51.358;5.628;2023-03-23T13:20:05;100176.72;;;18.45;71.11
46303;BME280;32029;51.358;5.628;2023-03-23T13:22:41;100162.72;;;18.56;70.29
46303;BME280;32029;51.358;5.628;2023-03-23T13:25:42;100160.94;;;18.67;70.09
46303;BME280;32029;51.358;5.628;2023-03-23T13:28:21;100158.84;;;18.74;68.40
46303;BME280;32029;51.358;5.628;2023-03-23T13:31:11;100160.69;;;18.69;68.41
46303;BME280;32029;51.358;5.628;2023-03-23T13:33:51;100159.44;;;18.59;68.07
46303;BME280;32029;51.358;5.628;2023-03-23T13:36:31;100158.28;;;18.55;68.48
46303;BME280;32029;51.358;5.628;2023-03-23T13:39:02;100137.25;;;18.43;68.22
46303;BME280;32029;51.358;5.628;2023-03-23T13:41:30;100129.03;;;18.31;68.39
46303;BME280;32029;51.358;5.628;2023-03-23T13:44:21;100143.53;;;18.55;69.48
46303;BME280;32029;51.358;5.628;2023-03-23T13:47:07;100125.53;;;18.57;69.37
46303;BME280;32029;51.358;5.628;2023-03-23T13:49:50;100144.44;;;18.77;69.30
46303;BME280;32029;51.358;5.628;2023-03-23T14:08:24;100109.34;;;18.93;69.36
46303;BME280;32029;51.358;5.628;2023-03-23T14:11:11;100120.06;;;19.06;69.15
46303;BME280;32029;51.358;5.628;2023-03-23T14:14:05;100120.75;;;19.19;69.18
46303;BME280;32029;51.358;5.628;2023-03-23T14:16:48;100130.41;;;19.38;67.91
46303;BME280;32029;51.358;5.628;2023-03-23T14:21:59;100144.78;;;19.57;67.32
46303;BME280;32029;51.358;5.628;2023-03-23T14:24:38;100109.31;;;19.42;66.25
46303;BME280;32029;51.358;5.628;2023-03-23T14:27:09;100147.81;;;19.50;66.14
46303;BME280;32029;51.358;5.628;2023-03-23T14:29:36;100154.56;;;19.32;66.79
46303;BME280;32029;51.358;5.628;2023-03-23T14:32:06;100131.88;;;19.19;66.69
46303;BME280;32029;51.358;5.628;2023-03-23T14:34:34;100089.84;;;18.88;66.64
46303;BME280;32029;51.358;5.628;2023-03-23T14:37:02;100117.28;;;19.06;66.64
46303;BME280;32029;51.358;5.628;2023-03-23T14:39:31;100101.38;;;19.02;67.55
46303;BME280;32029;51.358;5.628;2023-03-23T14:42:04;100101.03;;;19.20;66.35
46303;BME280;32029;51.358;5.628;2023-03-23T14:44:36;100099.44;;;19.29;65.91
46303;BME280;32029;51.358;5.628;2023-03-23T14:47:06;100077.94;;;19.20;65.58